Etusivu
METAR-TAF:

METAR-TAF

Lentoasemat :

Menominee-Marinette Twin County Airport

Menominee, Michigan, Yhdysvallat

Leveyspiiri: 45-08N, Pituuspiiri: 087-38W, korkeus merenpinnasta: 191 m

Tämänhetkinen sää

Tämä raportti tehtiin 13 minuuttia sitten, kello 13.45 UTC
Tuuli 11 kn kaakosta
Lämpötila -2°C
Kosteus 93%
Ilmanpaine 1006 hPa
Näkyvyys: 1.6 km
Pilvistä 400 ft:n korkeudessa
heikkoa lumisadetta, utua

METAR: KMNM 181345Z AUTO 13011KT 1SM -SN BR OVC004 M02/M03 A2972 RMK AO2 P0000 FZRANO $

Aika: 08:58 (13:58 UTC)


TAF: puuttuu

Säähavainnot ja -ennusteet yli 4000 lentoasemalta (METAR- ja TAF-raportit).

Käytössä olevat sääasemat on merkitty karttaan keltaisilla ja punaisilla pisteillä.

Aseta hiiri pisteen päälle nähdäksesi sääaseman nimen.

Klikkaa sitten nähdäksesi säähavainnot ja -ennusteet.

Kartan vaihtaminen: klikkaa mustalla rastilla varustettuja vihreitä pisteitä, niin voit zoomata sisään; viivalla varustettua vihreää pistettä, niin voit zoomata ulos tai vihreitä nuolia, niin pääset viereisille kartoille.


METAR-TAF: